sensor_id;sensor_type;location;lat;lon;timestamp;P1;durP1;ratioP1;P2;durP2;ratioP2
76752;SDS011;65687;51.308;16.916;2023-09-30T00:03:51;11.40;;;7.70;;
76752;SDS011;65687;51.308;16.916;2023-09-30T00:08:52;9.30;;;7.40;;
76752;SDS011;65687;51.308;16.916;2023-09-30T00:13:54;10.60;;;7.90;;
76752;SDS011;65687;51.308;16.916;2023-09-30T00:18:56;9.60;;;8.60;;
76752;SDS011;65687;51.308;16.916;2023-09-30T00:23:59;8.90;;;7.70;;
76752;SDS011;65687;51.308;16.916;2023-09-30T00:29:01;9.50;;;7.80;;
76752;SDS011;65687;51.308;16.916;2023-09-30T00:34:05;11.90;;;8.40;;
76752;SDS011;65687;51.308;16.916;2023-09-30T00:39:07;12.80;;;8.50;;
76752;SDS011;65687;51.308;16.916;2023-09-30T00:44:10;11.50;;;8.80;;
76752;SDS011;65687;51.308;16.916;2023-09-30T00:49:12;13.20;;;8.00;;
76752;SDS011;65687;51.308;16.916;2023-09-30T00:54:15;14.10;;;8.10;;
76752;SDS011;65687;51.308;16.916;2023-09-30T00:59:18;14.70;;;8.20;;
76752;SDS011;65687;51.308;16.916;2023-09-30T01:04:20;9.70;;;7.70;;
76752;SDS011;65687;51.308;16.916;2023-09-30T01:09:22;11.60;;;7.90;;
76752;SDS011;65687;51.308;16.916;2023-09-30T01:14:25;11.10;;;8.30;;
76752;SDS011;65687;51.308;16.916;2023-09-30T01:19:31;10.80;;;8.00;;
76752;SDS011;65687;51.308;16.916;2023-09-30T01:24:39;8.70;;;7.00;;
76752;SDS011;65687;51.308;16.916;2023-09-30T01:29:41;12.00;;;8.10;;
76752;SDS011;65687;51.308;16.916;2023-09-30T01:34:43;12.20;;;7.50;;
76752;SDS011;65687;51.308;16.916;2023-09-30T01:39:45;11.00;;;7.50;;
76752;SDS011;65687;51.308;16.916;2023-09-30T01:44:46;9.40;;;7.50;;
76752;SDS011;65687;51.308;16.916;2023-09-30T01:49:49;12.40;;;8.60;;
76752;SDS011;65687;51.308;16.916;2023-09-30T01:54:50;11.10;;;8.40;;
76752;SDS011;65687;51.308;16.916;2023-09-30T01:59:53;8.90;;;7.20;;
76752;SDS011;65687;51.308;16.916;2023-09-30T02:04:54;8.70;;;6.40;;
76752;SDS011;65687;51.308;16.916;2023-09-30T02:09:56;10.00;;;6.70;;
76752;SDS011;65687;51.308;16.916;2023-09-30T02:14:58;10.60;;;6.60;;
76752;SDS011;65687;51.308;16.916;2023-09-30T02:20:00;8.70;;;6.00;;
76752;SDS011;65687;51.308;16.916;2023-09-30T02:25:04;9.10;;;5.80;;
76752;SDS011;65687;51.308;16.916;2023-09-30T02:30:09;7.90;;;5.00;;
76752;SDS011;65687;51.308;16.916;2023-09-30T02:35:15;7.60;;;6.20;;
76752;SDS011;65687;51.308;16.916;2023-09-30T02:45:18;6.40;;;4.50;;
76752;SDS011;65687;51.308;16.916;2023-09-30T02:50:21;9.50;;;4.70;;
76752;SDS011;65687;51.308;16.916;2023-09-30T02:55:22;7.70;;;4.80;;
76752;SDS011;65687;51.308;16.916;2023-09-30T03:00:24;6.70;;;4.50;;
76752;SDS011;65687;51.308;16.916;2023-09-30T03:05:27;8.00;;;4.40;;
76752;SDS011;65687;51.308;16.916;2023-09-30T03:10:29;7.40;;;4.80;;
76752;SDS011;65687;51.308;16.916;2023-09-30T03:15:30;8.20;;;4.30;;
76752;SDS011;65687;51.308;16.916;2023-09-30T03:20:32;8.80;;;5.40;;
76752;SDS011;65687;51.308;16.916;2023-09-30T03:30:36;7.00;;;4.80;;
76752;SDS011;65687;51.308;16.916;2023-09-30T03:35:37;7.10;;;4.80;;
76752;SDS011;65687;51.308;16.916;2023-09-30T03:40:39;7.20;;;4.50;;
76752;SDS011;65687;51.308;16.916;2023-09-30T03:45:41;7.50;;;4.60;;
76752;SDS011;65687;51.308;16.916;2023-09-30T03:50:43;9.70;;;4.80;;
76752;SDS011;65687;51.308;16.916;2023-09-30T03:55:45;8.10;;;4.70;;
76752;SDS011;65687;51.308;16.916;2023-09-30T04:00:46;7.70;;;4.90;;
76752;SDS011;65687;51.308;16.916;2023-09-30T04:05:49;9.00;;;4.80;;
76752;SDS011;65687;51.308;16.916;2023-09-30T04:10:51;6.80;;;4.50;;
76752;SDS011;65687;51.308;16.916;2023-09-30T04:15:53;6.80;;;4.70;;
76752;SDS011;65687;51.308;16.916;2023-09-30T04:20:55;6.80;;;4.80;;
76752;SDS011;65687;51.308;16.916;2023-09-30T04:25:56;6.70;;;4.80;;
76752;SDS011;65687;51.308;16.916;2023-09-30T04:30:58;6.70;;;4.90;;
76752;SDS011;65687;51.308;16.916;2023-09-30T04:35:59;8.60;;;5.10;;
76752;SDS011;65687;51.308;16.916;2023-09-30T04:41:01;7.60;;;4.70;;
76752;SDS011;65687;51.308;16.916;2023-09-30T04:46:02;7.80;;;5.20;;
76752;SDS011;65687;51.308;16.916;2023-09-30T04:51:08;8.20;;;4.80;;
76752;SDS011;65687;51.308;16.916;2023-09-30T04:56:14;8.60;;;4.60;;
76752;SDS011;65687;51.308;16.916;2023-09-30T05:01:16;7.40;;;5.00;;
76752;SDS011;65687;51.308;16.916;2023-09-30T05:06:19;8.90;;;4.80;;
76752;SDS011;65687;51.308;16.916;2023-09-30T05:11:22;8.60;;;6.00;;
76752;SDS011;65687;51.308;16.916;2023-09-30T05:16:23;5.80;;;4.50;;
76752;SDS011;65687;51.308;16.916;2023-09-30T05:21:26;7.90;;;4.80;;
76752;SDS011;65687;51.308;16.916;2023-09-30T05:26:28;6.50;;;4.60;;
76752;SDS011;65687;51.308;16.916;2023-09-30T05:31:29;7.50;;;4.90;;
76752;SDS011;65687;51.308;16.916;2023-09-30T05:36:32;7.20;;;4.50;;
76752;SDS011;65687;51.308;16.916;2023-09-30T05:41:33;5.90;;;4.50;;
76752;SDS011;65687;51.308;16.916;2023-09-30T05:46:35;5.00;;;4.00;;
76752;SDS011;65687;51.308;16.916;2023-09-30T05:51:37;3.70;;;2.90;;
76752;SDS011;65687;51.308;16.916;2023-09-30T05:56:38;4.60;;;2.40;;
76752;SDS011;65687;51.308;16.916;2023-09-30T06:01:43;4.00;;;2.00;;
76752;SDS011;65687;51.308;16.916;2023-09-30T06:06:46;6.10;;;1.70;;
76752;SDS011;65687;51.308;16.916;2023-09-30T06:11:48;3.70;;;1.60;;
76752;SDS011;65687;51.308;16.916;2023-09-30T06:16:49;3.10;;;1.50;;
76752;SDS011;65687;51.308;16.916;2023-09-30T06:21:51;3.90;;;2.10;;
76752;SDS011;65687;51.308;16.916;2023-09-30T06:26:53;4.50;;;2.00;;
76752;SDS011;65687;51.308;16.916;2023-09-30T06:31:55;4.50;;;2.00;;
76752;SDS011;65687;51.308;16.916;2023-09-30T06:36:56;6.90;;;2.60;;
76752;SDS011;65687;51.308;16.916;2023-09-30T06:41:58;4.30;;;2.30;;
76752;SDS011;65687;51.308;16.916;2023-09-30T06:46:59;4.10;;;2.40;;
76752;SDS011;65687;51.308;16.916;2023-09-30T06:57:04;6.30;;;3.00;;
76752;SDS011;65687;51.308;16.916;2023-09-30T07:02:05;3.50;;;2.60;;
76752;SDS011;65687;51.308;16.916;2023-09-30T07:07:07;6.10;;;3.70;;
76752;SDS011;65687;51.308;16.916;2023-09-30T07:12:08;7.10;;;4.30;;
76752;SDS011;65687;51.308;16.916;2023-09-30T07:17:10;5.10;;;3.90;;
76752;SDS011;65687;51.308;16.916;2023-09-30T07:22:11;5.50;;;3.70;;
76752;SDS011;65687;51.308;16.916;2023-09-30T07:27:14;7.10;;;4.60;;
76752;SDS011;65687;51.308;16.916;2023-09-30T07:32:17;4.60;;;2.80;;
76752;SDS011;65687;51.308;16.916;2023-09-30T07:37:19;4.40;;;2.50;;
76752;SDS011;65687;51.308;16.916;2023-09-30T07:42:21;6.00;;;2.50;;
76752;SDS011;65687;51.308;16.916;2023-09-30T07:47:24;6.20;;;3.00;;
76752;SDS011;65687;51.308;16.916;2023-09-30T07:52:26;5.40;;;2.70;;
76752;SDS011;65687;51.308;16.916;2023-09-30T07:57:27;6.20;;;2.60;;
76752;SDS011;65687;51.308;16.916;2023-09-30T08:02:29;5.80;;;2.70;;
76752;SDS011;65687;51.308;16.916;2023-09-30T08:07:34;6.30;;;3.30;;
76752;SDS011;65687;51.308;16.916;2023-09-30T08:12:36;5.40;;;3.20;;
76752;SDS011;65687;51.308;16.916;2023-09-30T08:17:37;6.00;;;3.20;;
76752;SDS011;65687;51.308;16.916;2023-09-30T08:22:41;6.00;;;2.70;;
76752;SDS011;65687;51.308;16.916;2023-09-30T08:27:42;5.90;;;3.00;;
76752;SDS011;65687;51.308;16.916;2023-09-30T08:32:44;6.10;;;2.90;;
76752;SDS011;65687;51.308;16.916;2023-09-30T08:37:47;8.00;;;3.20;;
76752;SDS011;65687;51.308;16.916;2023-09-30T08:42:52;7.30;;;3.00;;
76752;SDS011;65687;51.308;16.916;2023-09-30T08:48:13;37.60;;;22.10;;
76752;SDS011;65687;51.308;16.916;2023-09-30T08:53:15;9.80;;;6.90;;
76752;SDS011;65687;51.308;16.916;2023-09-30T08:58:18;7.10;;;3.90;;
76752;SDS011;65687;51.308;16.916;2023-09-30T09:03:20;27.30;;;16.00;;
76752;SDS011;65687;51.308;16.916;2023-09-30T09:08:23;19.60;;;9.60;;
76752;SDS011;65687;51.308;16.916;2023-09-30T09:13:27;9.00;;;4.70;;
76752;SDS011;65687;51.308;16.916;2023-09-30T09:18:32;6.60;;;3.00;;
76752;SDS011;65687;51.308;16.916;2023-09-30T09:23:38;6.30;;;2.40;;
76752;SDS011;65687;51.308;16.916;2023-09-30T09:28:47;6.20;;;2.10;;
76752;SDS011;65687;51.308;16.916;2023-09-30T09:33:52;4.80;;;2.00;;
76752;SDS011;65687;51.308;16.916;2023-09-30T09:38:54;5.90;;;2.20;;
76752;SDS011;65687;51.308;16.916;2023-09-30T09:43:56;8.30;;;3.60;;
76752;SDS011;65687;51.308;16.916;2023-09-30T09:49:00;8.90;;;2.40;;
76752;SDS011;65687;51.308;16.916;2023-09-30T09:54:02;9.40;;;6.30;;
76752;SDS011;65687;51.308;16.916;2023-09-30T09:59:08;7.30;;;2.70;;
76752;SDS011;65687;51.308;16.916;2023-09-30T10:04:12;6.40;;;2.50;;
76752;SDS011;65687;51.308;16.916;2023-09-30T10:09:17;5.80;;;2.00;;
76752;SDS011;65687;51.308;16.916;2023-09-30T10:14:29;6.20;;;2.40;;
76752;SDS011;65687;51.308;16.916;2023-09-30T10:19:48;7.70;;;2.50;;
76752;SDS011;65687;51.308;16.916;2023-09-30T10:25:32;10.10;;;3.50;;
76752;SDS011;65687;51.308;16.916;2023-09-30T10:30:37;6.70;;;2.40;;
76752;SDS011;65687;51.308;16.916;2023-09-30T10:40:40;6.40;;;2.60;;
76752;SDS011;65687;51.308;16.916;2023-09-30T10:45:42;6.50;;;2.30;;
76752;SDS011;65687;51.308;16.916;2023-09-30T10:50:50;7.50;;;2.10;;
76752;SDS011;65687;51.308;16.916;2023-09-30T10:55:55;8.20;;;3.90;;
76752;SDS011;65687;51.308;16.916;2023-09-30T11:00:58;6.60;;;2.30;;
76752;SDS011;65687;51.308;16.916;2023-09-30T11:06:00;6.60;;;2.10;;
76752;SDS011;65687;51.308;16.916;2023-09-30T11:11:01;6.80;;;4.30;;
76752;SDS011;65687;51.308;16.916;2023-09-30T11:16:04;8.50;;;2.90;;
76752;SDS011;65687;51.308;16.916;2023-09-30T11:21:07;5.90;;;2.60;;
76752;SDS011;65687;51.308;16.916;2023-09-30T11:26:11;7.60;;;2.30;;
76752;SDS011;65687;51.308;16.916;2023-09-30T11:31:15;8.80;;;2.70;;
76752;SDS011;65687;51.308;16.916;2023-09-30T11:36:20;9.30;;;2.20;;
76752;SDS011;65687;51.308;16.916;2023-09-30T11:41:31;8.60;;;3.00;;
76752;SDS011;65687;51.308;16.916;2023-09-30T11:51:58;8.80;;;2.50;;
76752;SDS011;65687;51.308;16.916;2023-09-30T11:57:01;7.70;;;2.30;;
76752;SDS011;65687;51.308;16.916;2023-09-30T12:02:05;13.10;;;7.60;;
76752;SDS011;65687;51.308;16.916;2023-09-30T12:07:11;6.90;;;3.00;;
76752;SDS011;65687;51.308;16.916;2023-09-30T12:12:13;8.60;;;2.70;;
76752;SDS011;65687;51.308;16.916;2023-09-30T12:17:16;7.90;;;2.40;;
76752;SDS011;65687;51.308;16.916;2023-09-30T12:22:18;5.50;;;1.90;;
76752;SDS011;65687;51.308;16.916;2023-09-30T12:27:21;6.60;;;2.60;;
76752;SDS011;65687;51.308;16.916;2023-09-30T12:32:22;6.70;;;2.20;;
76752;SDS011;65687;51.308;16.916;2023-09-30T12:37:24;6.40;;;2.20;;
76752;SDS011;65687;51.308;16.916;2023-09-30T12:42:26;7.60;;;2.20;;
76752;SDS011;65687;51.308;16.916;2023-09-30T12:47:28;5.20;;;2.20;;
76752;SDS011;65687;51.308;16.916;2023-09-30T12:52:29;6.30;;;2.60;;
76752;SDS011;65687;51.308;16.916;2023-09-30T12:57:33;4.00;;;1.80;;
76752;SDS011;65687;51.308;16.916;2023-09-30T13:02:34;5.90;;;2.10;;
76752;SDS011;65687;51.308;16.916;2023-09-30T13:12:38;7.90;;;2.30;;
76752;SDS011;65687;51.308;16.916;2023-09-30T13:17:40;4.00;;;1.80;;
76752;SDS011;65687;51.308;16.916;2023-09-30T13:22:42;5.30;;;2.40;;
76752;SDS011;65687;51.308;16.916;2023-09-30T13:27:43;5.50;;;2.10;;
76752;SDS011;65687;51.308;16.916;2023-09-30T13:32:45;5.10;;;1.90;;
76752;SDS011;65687;51.308;16.916;2023-09-30T13:37:47;4.90;;;1.70;;
76752;SDS011;65687;51.308;16.916;2023-09-30T13:42:49;5.80;;;2.40;;
76752;SDS011;65687;51.308;16.916;2023-09-30T13:47:50;7.00;;;2.20;;
76752;SDS011;65687;51.308;16.916;2023-09-30T13:52:52;4.60;;;2.00;;
76752;SDS011;65687;51.308;16.916;2023-09-30T13:57:54;5.70;;;2.50;;
76752;SDS011;65687;51.308;16.916;2023-09-30T14:02:55;3.60;;;1.60;;
76752;SDS011;65687;51.308;16.916;2023-09-30T14:07:57;8.10;;;2.30;;
76752;SDS011;65687;51.308;16.916;2023-09-30T14:12:59;6.00;;;1.90;;
76752;SDS011;65687;51.308;16.916;2023-09-30T14:18:00;6.60;;;2.00;;
76752;SDS011;65687;51.308;16.916;2023-09-30T14:23:03;4.70;;;2.00;;
76752;SDS011;65687;51.308;16.916;2023-09-30T14:28:05;5.30;;;1.90;;
76752;SDS011;65687;51.308;16.916;2023-09-30T14:38:08;6.80;;;2.00;;
76752;SDS011;65687;51.308;16.916;2023-09-30T14:43:12;6.40;;;2.50;;
76752;SDS011;65687;51.308;16.916;2023-09-30T14:48:13;11.10;;;2.60;;
76752;SDS011;65687;51.308;16.916;2023-09-30T14:53:16;3.90;;;1.70;;
76752;SDS011;65687;51.308;16.916;2023-09-30T14:58:18;5.50;;;2.00;;
76752;SDS011;65687;51.308;16.916;2023-09-30T15:03:19;7.20;;;2.40;;
76752;SDS011;65687;51.308;16.916;2023-09-30T15:08:22;8.00;;;2.80;;
76752;SDS011;65687;51.308;16.916;2023-09-30T15:13:24;8.80;;;2.40;;
76752;SDS011;65687;51.308;16.916;2023-09-30T15:18:26;4.40;;;1.60;;
76752;SDS011;65687;51.308;16.916;2023-09-30T15:23:28;4.30;;;1.80;;
76752;SDS011;65687;51.308;16.916;2023-09-30T15:28:34;4.70;;;2.30;;
76752;SDS011;65687;51.308;16.916;2023-09-30T15:33:35;4.90;;;2.20;;
76752;SDS011;65687;51.308;16.916;2023-09-30T15:38:37;5.20;;;2.10;;
76752;SDS011;65687;51.308;16.916;2023-09-30T15:43:39;6.10;;;1.80;;
76752;SDS011;65687;51.308;16.916;2023-09-30T15:48:41;4.20;;;2.10;;
76752;SDS011;65687;51.308;16.916;2023-09-30T15:53:43;4.40;;;2.20;;
76752;SDS011;65687;51.308;16.916;2023-09-30T15:58:45;5.80;;;2.20;;
76752;SDS011;65687;51.308;16.916;2023-09-30T16:03:47;5.60;;;2.10;;
76752;SDS011;65687;51.308;16.916;2023-09-30T16:08:48;5.20;;;2.50;;
76752;SDS011;65687;51.308;16.916;2023-09-30T16:13:50;5.90;;;2.00;;
76752;SDS011;65687;51.308;16.916;2023-09-30T16:18:53;6.10;;;2.00;;
76752;SDS011;65687;51.308;16.916;2023-09-30T16:23:54;8.90;;;2.40;;
76752;SDS011;65687;51.308;16.916;2023-09-30T16:28:56;6.60;;;2.50;;
76752;SDS011;65687;51.308;16.916;2023-09-30T16:33:59;7.80;;;3.00;;
76752;SDS011;65687;51.308;16.916;2023-09-30T16:39:01;6.20;;;2.50;;
76752;SDS011;65687;51.308;16.916;2023-09-30T16:44:04;8.30;;;2.30;;
76752;SDS011;65687;51.308;16.916;2023-09-30T16:49:06;4.20;;;2.10;;
76752;SDS011;65687;51.308;16.916;2023-09-30T16:54:08;6.60;;;2.20;;
76752;SDS011;65687;51.308;16.916;2023-09-30T16:59:09;6.40;;;2.60;;
76752;SDS011;65687;51.308;16.916;2023-09-30T17:04:11;6.30;;;1.90;;
76752;SDS011;65687;51.308;16.916;2023-09-30T17:09:13;3.70;;;2.20;;
76752;SDS011;65687;51.308;16.916;2023-09-30T17:14:15;6.20;;;2.30;;
76752;SDS011;65687;51.308;16.916;2023-09-30T17:19:16;5.70;;;2.40;;
76752;SDS011;65687;51.308;16.916;2023-09-30T17:24:18;6.70;;;2.30;;
76752;SDS011;65687;51.308;16.916;2023-09-30T17:29:19;5.20;;;2.50;;
76752;SDS011;65687;51.308;16.916;2023-09-30T17:34:21;5.00;;;2.00;;
76752;SDS011;65687;51.308;16.916;2023-09-30T17:39:23;6.00;;;2.10;;
76752;SDS011;65687;51.308;16.916;2023-09-30T17:44:24;5.10;;;2.10;;
76752;SDS011;65687;51.308;16.916;2023-09-30T17:49:26;4.30;;;1.90;;
76752;SDS011;65687;51.308;16.916;2023-09-30T17:54:28;7.40;;;2.00;;
76752;SDS011;65687;51.308;16.916;2023-09-30T17:59:30;6.80;;;2.00;;
76752;SDS011;65687;51.308;16.916;2023-09-30T18:04:32;6.00;;;2.30;;
76752;SDS011;65687;51.308;16.916;2023-09-30T18:09:34;5.60;;;2.20;;
76752;SDS011;65687;51.308;16.916;2023-09-30T18:14:36;5.70;;;2.20;;
76752;SDS011;65687;51.308;16.916;2023-09-30T18:19:38;4.80;;;2.10;;
76752;SDS011;65687;51.308;16.916;2023-09-30T18:24:39;5.90;;;2.30;;
76752;SDS011;65687;51.308;16.916;2023-09-30T18:29:41;8.00;;;2.40;;
76752;SDS011;65687;51.308;16.916;2023-09-30T18:34:44;8.20;;;2.80;;
76752;SDS011;65687;51.308;16.916;2023-09-30T18:39:46;4.80;;;2.60;;
76752;SDS011;65687;51.308;16.916;2023-09-30T18:44:48;5.10;;;2.50;;
76752;SDS011;65687;51.308;16.916;2023-09-30T18:49:50;6.30;;;2.50;;
76752;SDS011;65687;51.308;16.916;2023-09-30T18:54:51;7.60;;;2.50;;
76752;SDS011;65687;51.308;16.916;2023-09-30T18:59:53;7.40;;;2.50;;
76752;SDS011;65687;51.308;16.916;2023-09-30T19:04:55;7.30;;;2.50;;
76752;SDS011;65687;51.308;16.916;2023-09-30T19:09:57;6.70;;;2.30;;
76752;SDS011;65687;51.308;16.916;2023-09-30T19:15:00;5.50;;;2.60;;
76752;SDS011;65687;51.308;16.916;2023-09-30T19:20:02;5.20;;;2.10;;
76752;SDS011;65687;51.308;16.916;2023-09-30T19:25:05;6.40;;;2.40;;
76752;SDS011;65687;51.308;16.916;2023-09-30T19:30:07;6.20;;;2.80;;
76752;SDS011;65687;51.308;16.916;2023-09-30T19:35:09;4.90;;;2.20;;
76752;SDS011;65687;51.308;16.916;2023-09-30T19:40:12;7.80;;;3.10;;
76752;SDS011;65687;51.308;16.916;2023-09-30T19:45:13;8.00;;;2.40;;
76752;SDS011;65687;51.308;16.916;2023-09-30T19:50:15;8.10;;;3.30;;
76752;SDS011;65687;51.308;16.916;2023-09-30T19:55:16;6.30;;;2.20;;
76752;SDS011;65687;51.308;16.916;2023-09-30T20:00:19;6.10;;;2.40;;
76752;SDS011;65687;51.308;16.916;2023-09-30T20:05:20;6.70;;;2.30;;
76752;SDS011;65687;51.308;16.916;2023-09-30T20:10:23;8.70;;;2.50;;
76752;SDS011;65687;51.308;16.916;2023-09-30T20:15:25;5.90;;;2.50;;
76752;SDS011;65687;51.308;16.916;2023-09-30T20:20:26;6.00;;;2.20;;
76752;SDS011;65687;51.308;16.916;2023-09-30T20:25:29;5.50;;;2.50;;
76752;SDS011;65687;51.308;16.916;2023-09-30T20:30:30;4.90;;;2.50;;
76752;SDS011;65687;51.308;16.916;2023-09-30T20:35:32;6.00;;;2.30;;
76752;SDS011;65687;51.308;16.916;2023-09-30T20:40:37;6.00;;;2.30;;
76752;SDS011;65687;51.308;16.916;2023-09-30T20:45:39;4.40;;;2.20;;
76752;SDS011;65687;51.308;16.916;2023-09-30T20:50:41;8.40;;;4.10;;
76752;SDS011;65687;51.308;16.916;2023-09-30T20:55:42;5.80;;;2.40;;
76752;SDS011;65687;51.308;16.916;2023-09-30T21:00:44;6.70;;;2.90;;
76752;SDS011;65687;51.308;16.916;2023-09-30T21:05:46;5.10;;;2.70;;
76752;SDS011;65687;51.308;16.916;2023-09-30T21:10:48;6.30;;;2.40;;
76752;SDS011;65687;51.308;16.916;2023-09-30T21:15:50;6.40;;;2.30;;
76752;SDS011;65687;51.308;16.916;2023-09-30T21:20:52;6.10;;;2.50;;
76752;SDS011;65687;51.308;16.916;2023-09-30T21:25:53;6.70;;;2.70;;
76752;SDS011;65687;51.308;16.916;2023-09-30T21:30:55;8.00;;;2.80;;
76752;SDS011;65687;51.308;16.916;2023-09-30T21:35:57;4.90;;;2.70;;
76752;SDS011;65687;51.308;16.916;2023-09-30T21:40:59;8.40;;;2.70;;
76752;SDS011;65687;51.308;16.916;2023-09-30T21:46:00;8.10;;;2.90;;
76752;SDS011;65687;51.308;16.916;2023-09-30T21:51:02;7.30;;;2.90;;
76752;SDS011;65687;51.308;16.916;2023-09-30T21:56:03;9.00;;;2.80;;
76752;SDS011;65687;51.308;16.916;2023-09-30T22:01:05;7.70;;;3.00;;
76752;SDS011;65687;51.308;16.916;2023-09-30T22:06:09;7.30;;;3.70;;
76752;SDS011;65687;51.308;16.916;2023-09-30T22:11:11;5.50;;;3.10;;
76752;SDS011;65687;51.308;16.916;2023-09-30T22:16:12;7.80;;;3.30;;
76752;SDS011;65687;51.308;16.916;2023-09-30T22:21:14;7.90;;;3.20;;
76752;SDS011;65687;51.308;16.916;2023-09-30T22:26:15;10.00;;;3.70;;
76752;SDS011;65687;51.308;16.916;2023-09-30T22:31:17;7.60;;;3.70;;
76752;SDS011;65687;51.308;16.916;2023-09-30T22:36:18;6.80;;;3.40;;
76752;SDS011;65687;51.308;16.916;2023-09-30T22:41:20;10.10;;;3.30;;
76752;SDS011;65687;51.308;16.916;2023-09-30T22:46:22;7.70;;;3.30;;
76752;SDS011;65687;51.308;16.916;2023-09-30T22:51:24;10.80;;;4.00;;
76752;SDS011;65687;51.308;16.916;2023-09-30T22:56:25;12.70;;;3.80;;
76752;SDS011;65687;51.308;16.916;2023-09-30T23:01:30;8.10;;;3.80;;
76752;SDS011;65687;51.308;16.916;2023-09-30T23:06:32;8.70;;;3.70;;
76752;SDS011;65687;51.308;16.916;2023-09-30T23:11:34;6.70;;;3.30;;
76752;SDS011;65687;51.308;16.916;2023-09-30T23:16:35;7.60;;;3.80;;
76752;SDS011;65687;51.308;16.916;2023-09-30T23:21:37;7.10;;;3.40;;
76752;SDS011;65687;51.308;16.916;2023-09-30T23:26:38;8.20;;;4.00;;
76752;SDS011;65687;51.308;16.916;2023-09-30T23:31:40;8.40;;;3.60;;
76752;SDS011;65687;51.308;16.916;2023-09-30T23:36:46;7.90;;;4.10;;
76752;SDS011;65687;51.308;16.916;2023-09-30T23:41:50;8.30;;;3.70;;
76752;SDS011;65687;51.308;16.916;2023-09-30T23:46:52;7.40;;;3.30;;
76752;SDS011;65687;51.308;16.916;2023-09-30T23:51:54;7.60;;;3.50;;
